createdAt,value
2022-10-29T00:01:33.060Z,66400.09
2022-10-29T00:06:37.370Z,66420.16
2022-10-29T00:11:42.705Z,66429.81
2022-10-29T00:16:46.530Z,66471.16
2022-10-29T00:21:51.173Z,66391.59
2022-10-29T00:26:56.361Z,66367.97
2022-10-29T00:32:00.284Z,66340.06
2022-10-29T00:37:04.371Z,66365.28
2022-10-29T00:42:15.850Z,66403.31
2022-10-29T00:47:24.723Z,66441.53
2022-10-29T00:52:32.146Z,66393.47
2022-10-29T00:57:40.615Z,66365.75
2022-10-29T01:02:46.033Z,66407.22
2022-10-29T01:07:49.954Z,66403.94
2022-10-29T01:18:34.555Z,66391.75
2022-10-29T01:24:07.638Z,66374.34
2022-10-29T01:29:29.925Z,66423.44
2022-10-29T01:34:44.406Z,66404.94
2022-10-29T01:39:58.030Z,66448.50
2022-10-29T01:45:12.343Z,66417.38
2022-10-29T01:50:21.380Z,66386.28
2022-10-29T01:55:35.330Z,66473.84
2022-10-29T02:00:51.417Z,66360.00
2022-10-29T02:06:02.161Z,66391.59
2022-10-29T02:11:10.666Z,66459.34
2022-10-29T02:16:15.466Z,66420.69
2022-10-29T02:21:21.880Z,66519.56
2022-10-29T02:26:25.786Z,66477.59
2022-10-29T02:31:29.848Z,66538.38
2022-10-29T02:36:34.995Z,66471.16
2022-10-29T02:41:39.674Z,66472.53
2022-10-29T02:46:43.637Z,66470.59
2022-10-29T02:51:49.094Z,66509.56
2022-10-29T02:56:53.177Z,66443.06
2022-10-29T03:01:58.254Z,66500.53
2022-10-29T03:07:04.364Z,66503.84
2022-10-29T03:12:09.088Z,66468.47
2022-10-29T03:17:13.206Z,66415.31
2022-10-29T03:22:18.661Z,66491.47
2022-10-29T03:27:22.549Z,66456.13
2022-10-29T03:32:26.328Z,66513.66
2022-10-29T03:37:31.661Z,66496.31
2022-10-29T03:42:35.752Z,66429.25
2022-10-29T03:47:39.777Z,66448.44
2022-10-29T03:52:45.064Z,66437.16
2022-10-29T03:57:49.082Z,66468.47
2022-10-29T04:02:53.403Z,66432.41
2022-10-29T04:07:58.921Z,66454.97
2022-10-29T04:13:02.995Z,66501.22
2022-10-29T04:18:07.135Z,66495.88
2022-10-29T04:26:25.868Z,66518.88
2022-10-29T04:28:42.911Z,66475.81
2022-10-29T04:33:47.560Z,66507.59
2022-10-29T04:38:52.820Z,66518.41
2022-10-29T04:43:56.672Z,66558.56
2022-10-29T04:49:00.873Z,66539.91
2022-10-29T04:54:06.413Z,66524.94
2022-10-29T04:59:10.360Z,66457.13
2022-10-29T05:04:14.496Z,66478.75
2022-10-29T05:09:19.658Z,66469.09
2022-10-29T05:14:23.496Z,66487.34
2022-10-29T05:19:27.294Z,66458.34
2022-10-29T05:24:32.406Z,66477.53
2022-10-29T05:29:36.307Z,66502.31
2022-10-29T05:34:44.354Z,66478.59
2022-10-29T05:39:49.734Z,66483.97
2022-10-29T05:44:53.476Z,66531.31
2022-10-29T05:49:57.417Z,66493.72
2022-10-29T05:55:03.840Z,66481.97
2022-10-29T06:00:09.364Z,66566.72
2022-10-29T06:05:16.010Z,66560.28
2022-10-29T06:10:21.313Z,66612.34
2022-10-29T06:15:25.154Z,66577.47
2022-10-29T06:20:29.165Z,66566.72
2022-10-29T06:25:34.780Z,66615.09
2022-10-29T06:30:38.998Z,66630.78
2022-10-29T06:35:43.239Z,66587.69
2022-10-29T06:40:54.102Z,66640.91
2022-10-29T06:45:57.913Z,66667.44
2022-10-29T06:51:02.285Z,66703.34
2022-10-29T06:56:08.064Z,66598.97
2022-10-29T07:01:11.968Z,66639.84
2022-10-29T07:06:15.738Z,66668.44
2022-10-29T07:11:21.021Z,66696.78
2022-10-29T07:16:24.806Z,66692.66
2022-10-29T07:21:28.596Z,66702.41
2022-10-29T07:26:34.418Z,66721.53
2022-10-29T07:31:38.744Z,66729.69
2022-10-29T07:36:42.578Z,66687.69
2022-10-29T07:41:47.687Z,66658.28
2022-10-29T07:46:51.507Z,66666.25
2022-10-29T07:51:55.585Z,66698.00
2022-10-29T07:57:00.713Z,66709.16
2022-10-29T08:02:04.690Z,66768.03
2022-10-29T08:07:08.501Z,66780.97
2022-10-29T08:12:13.613Z,66818.59
2022-10-29T08:17:17.513Z,66837.38
2022-10-29T08:22:21.420Z,66869.69
2022-10-29T08:27:26.612Z,66861.66
2022-10-29T08:32:30.349Z,66892.91
2022-10-29T08:37:34.072Z,66857.38
2022-10-29T08:42:47.490Z,66860.53
2022-10-29T08:48:21.104Z,66868.66
2022-10-29T08:53:32.917Z,66917.69
2022-10-29T08:58:46.616Z,66930.09
2022-10-29T09:03:50.937Z,66881.59
2022-10-29T09:09:17.929Z,66879.91
2022-10-29T09:14:40.662Z,66805.72
2022-10-29T09:20:18.209Z,66763.13
2022-10-29T09:25:29.457Z,66849.22
2022-10-29T09:30:43.423Z,66871.97
2022-10-29T09:35:50.023Z,66944.66
2022-10-29T09:40:57.590Z,66912.38
2022-10-29T09:46:14.178Z,66891.91
2022-10-29T09:51:27.333Z,66985.53
2022-10-29T09:56:31.787Z,66982.97
2022-10-29T10:01:37.122Z,66936.97
2022-10-29T10:07:03.501Z,66974.75
2022-10-29T10:12:08.791Z,67020.63
2022-10-29T10:17:14.027Z,67048.63
2022-10-29T10:22:20.595Z,67095.00
2022-10-29T10:27:31.653Z,67106.53
2022-10-29T10:32:36.987Z,67099.94
2022-10-29T10:37:40.746Z,67114.50
2022-10-29T10:42:47.592Z,67098.94
2022-10-29T10:47:59.160Z,67121.47
2022-10-29T10:53:06.346Z,67133.88
2022-10-29T10:58:15.170Z,67143.13
2022-10-29T11:03:25.240Z,67122.53
2022-10-29T11:08:35.095Z,67094.53
2022-10-29T11:13:41.712Z,67099.94
2022-10-29T11:18:53.300Z,67133.94
2022-10-29T11:24:04.029Z,67084.91
2022-10-29T11:29:16.536Z,67158.16
2022-10-29T11:34:26.276Z,67054.09
2022-10-29T11:39:34.553Z,67096.78
2022-10-29T11:44:40.405Z,67181.91
2022-10-29T11:50:01.691Z,67207.81
2022-10-29T11:55:17.183Z,67205.66
2022-10-29T12:00:23.907Z,67149.53
2022-10-29T12:05:37.283Z,67299.63
2022-10-29T12:10:51.314Z,67123.13
2022-10-29T12:16:07.248Z,67127.91
2022-10-29T12:21:22.858Z,67154.59
2022-10-29T12:26:31.637Z,67213.22
2022-10-29T12:31:43.558Z,67081.59
2022-10-29T12:36:57.695Z,67111.28
2022-10-29T12:42:04.560Z,67081.00
2022-10-29T12:47:15.711Z,67071.97
2022-10-29T12:52:30.115Z,67118.63
2022-10-29T12:57:35.759Z,67044.84
2022-10-29T13:02:45.938Z,66977.38
2022-10-29T13:08:26.763Z,67043.25
2022-10-29T13:13:47.989Z,67074.03
2022-10-29T13:19:05.472Z,67145.69
2022-10-29T13:24:17.985Z,67232.81
2022-10-29T13:29:48.446Z,67146.81
2022-10-29T13:34:57.691Z,67146.88
2022-10-29T13:40:47.272Z,67093.88
2022-10-29T13:46:03.231Z,67034.75
2022-10-29T13:51:08.753Z,67000.25
2022-10-29T13:56:19.183Z,67020.19
2022-10-29T14:01:26.279Z,66988.28
2022-10-29T14:06:34.576Z,66973.75
2022-10-29T14:11:40.827Z,66943.97
2022-10-29T14:16:46.005Z,66964.44
2022-10-29T14:21:49.729Z,66915.63
2022-10-29T14:27:08.062Z,66886.44
2022-10-29T14:32:18.570Z,66812.66
2022-10-29T14:37:30.024Z,66889.00
2022-10-29T14:42:36.252Z,66823.81
2022-10-29T14:47:41.581Z,66794.19
2022-10-29T14:52:53.389Z,66816.91
2022-10-29T14:58:05.285Z,66803.88
2022-10-29T15:03:21.275Z,66725.47
2022-10-29T15:08:29.368Z,66754.44
2022-10-29T15:13:36.073Z,66782.41
2022-10-29T15:18:41.391Z,66683.47
2022-10-29T15:23:46.635Z,66741.59
2022-10-29T15:28:53.096Z,66687.22
2022-10-29T15:34:03.883Z,66695.25
2022-10-29T15:39:21.004Z,66700.25
2022-10-29T15:44:41.103Z,66650.13
2022-10-29T15:49:46.492Z,66651.22
2022-10-29T15:54:50.720Z,66608.19
2022-10-29T15:59:57.460Z,66581.84
2022-10-29T16:05:02.844Z,66621.56
2022-10-29T16:10:07.779Z,66598.97
2022-10-29T16:15:16.485Z,66574.72
2022-10-29T16:20:21.914Z,66543.22
2022-10-29T16:25:27.899Z,66575.94
2022-10-29T16:30:31.814Z,66592.00
2022-10-29T16:35:37.170Z,66541.53
2022-10-29T16:40:42.767Z,66537.75
2022-10-29T16:45:46.623Z,66595.75
2022-10-29T16:50:51.707Z,66618.25
2022-10-29T16:55:55.488Z,66548.59
2022-10-29T17:01:04.148Z,66539.84
2022-10-29T17:06:11.875Z,66585.53
2022-10-29T17:11:16.158Z,66597.34
2022-10-29T17:16:19.911Z,66571.72
2022-10-29T17:21:25.240Z,66561.44
2022-10-29T17:26:29.124Z,66569.50
2022-10-29T17:31:32.952Z,66527.63
2022-10-29T17:36:41.056Z,66540.44
2022-10-29T17:41:44.828Z,66500.78
2022-10-29T17:46:48.557Z,66513.13
2022-10-29T17:51:53.868Z,66516.28
2022-10-29T17:56:57.808Z,66581.16
2022-10-29T18:02:01.541Z,66559.88
2022-10-29T18:07:07.067Z,66538.13
2022-10-29T18:12:11.171Z,66562.88
2022-10-29T18:17:14.880Z,66523.88
2022-10-29T18:22:20.077Z,66557.66
2022-10-29T18:27:24.212Z,66577.09
2022-10-29T18:32:27.978Z,66547.38
2022-10-29T18:37:33.508Z,66486.81
2022-10-29T18:42:37.306Z,66589.31
2022-10-29T18:47:41.212Z,66525.41
2022-10-29T18:52:46.332Z,66525.31
2022-10-29T18:57:50.053Z,66537.84
2022-10-29T19:02:53.988Z,66560.81
2022-10-29T19:08:02.964Z,66520.50
2022-10-29T19:13:08.117Z,66464.63
2022-10-29T19:18:11.942Z,66457.56
2022-10-29T19:23:17.156Z,66530.31
2022-10-29T19:28:21.045Z,66594.31
2022-10-29T19:33:24.989Z,66545.84
2022-10-29T19:38:30.354Z,66523.28
2022-10-29T19:43:34.269Z,66523.88
2022-10-29T19:48:38.148Z,66527.09
2022-10-29T19:53:43.462Z,66546.66
2022-10-29T19:58:50.034Z,66507.69
2022-10-29T20:03:53.943Z,66506.06
2022-10-29T20:08:59.090Z,66534.63
2022-10-29T20:14:04.019Z,66517.88
2022-10-29T20:19:08.868Z,66493.25
2022-10-29T20:24:13.989Z,66499.47
2022-10-29T20:29:17.867Z,66531.78
2022-10-29T20:34:21.603Z,66514.22
2022-10-29T20:39:30.864Z,66507.13
2022-10-29T20:44:37.176Z,66548.97
2022-10-29T20:49:40.978Z,66502.75
2022-10-29T20:54:46.216Z,66490.47
2022-10-29T20:59:49.950Z,66527.03
2022-10-29T21:04:53.815Z,66531.25
2022-10-29T21:09:58.871Z,66532.47
2022-10-29T21:15:02.571Z,66524.94
2022-10-29T21:20:07.149Z,66498.63
2022-10-29T21:25:12.588Z,66503.28
2022-10-29T21:30:16.657Z,66454.97
2022-10-29T21:35:20.380Z,66524.16
2022-10-29T21:40:25.439Z,66502.22
2022-10-29T21:45:29.241Z,66455.66
2022-10-29T21:50:32.953Z,66552.91
2022-10-29T21:55:38.377Z,66540.44
2022-10-29T22:00:42.208Z,66583.31
2022-10-29T22:05:46.567Z,66614.19
2022-10-29T22:10:51.863Z,66493.25
2022-10-29T22:15:56.114Z,66520.50
2022-10-29T22:21:05.112Z,66510.44
2022-10-29T22:26:10.309Z,66620.03
2022-10-29T22:31:15.296Z,66598.44
2022-10-29T22:36:20.909Z,66572.09
2022-10-29T22:41:26.898Z,66522.81
2022-10-29T22:46:31.469Z,66597.88
2022-10-29T22:56:29.874Z,66473.38
2022-10-29T23:01:44.296Z,66560.34
2022-10-29T23:06:49.693Z,66551.72
2022-10-29T23:11:55.089Z,66502.75
2022-10-29T23:17:00.612Z,66487.25
2022-10-29T23:22:04.688Z,66412.56
2022-10-29T23:27:09.892Z,66504.28
2022-10-29T23:32:13.665Z,66502.75
2022-10-29T23:37:17.349Z,66482.97
2022-10-29T23:42:22.625Z,66437.94
2022-10-29T23:47:26.315Z,66519.50
2022-10-29T23:52:29.949Z,66508.59
2022-10-29T23:57:35.140Z,66537.75
